sensor_id;sensor_type;location;lat;lon;timestamp;P1;durP1;ratioP1;P2;durP2;ratioP2
19671;SDS011;9983;51.114;13.788;2022-09-28T00:02:22;1.77;;;1.17;;
19671;SDS011;9983;51.114;13.788;2022-09-28T00:07:23;2.40;;;1.45;;
19671;SDS011;9983;51.114;13.788;2022-09-28T00:12:23;2.17;;;1.25;;
19671;SDS011;9983;51.114;13.788;2022-09-28T00:17:23;1.55;;;1.20;;
19671;SDS011;9983;51.114;13.788;2022-09-28T00:22:25;3.25;;;1.23;;
19671;SDS011;9983;51.114;13.788;2022-09-28T00:27:27;2.35;;;1.20;;
19671;SDS011;9983;51.114;13.788;2022-09-28T00:32:27;1.85;;;1.10;;
19671;SDS011;9983;51.114;13.788;2022-09-28T00:37:28;2.22;;;1.20;;
19671;SDS011;9983;51.114;13.788;2022-09-28T00:42:29;1.23;;;1.10;;
19671;SDS011;9983;51.114;13.788;2022-09-28T00:52:47;1.05;;;0.95;;
19671;SDS011;9983;51.114;13.788;2022-09-28T00:57:58;1.48;;;1.17;;
19671;SDS011;9983;51.114;13.788;2022-09-28T01:03:00;1.80;;;1.00;;
19671;SDS011;9983;51.114;13.788;2022-09-28T01:08:00;1.60;;;0.80;;
19671;SDS011;9983;51.114;13.788;2022-09-28T01:13:02;7.38;;;0.90;;
19671;SDS011;9983;51.114;13.788;2022-09-28T01:23:20;1.08;;;1.00;;
19671;SDS011;9983;51.114;13.788;2022-09-28T01:28:31;2.10;;;1.02;;
19671;SDS011;9983;51.114;13.788;2022-09-28T01:33:44;2.35;;;1.00;;
19671;SDS011;9983;51.114;13.788;2022-09-28T01:38:54;5.38;;;1.25;;
19671;SDS011;9983;51.114;13.788;2022-09-28T01:43:56;1.35;;;1.00;;
19671;SDS011;9983;51.114;13.788;2022-09-28T01:49:06;1.25;;;1.00;;
19671;SDS011;9983;51.114;13.788;2022-09-28T01:54:11;3.20;;;1.20;;
19671;SDS011;9983;51.114;13.788;2022-09-28T01:59:17;2.30;;;1.10;;
19671;SDS011;9983;51.114;13.788;2022-09-28T02:04:31;4.32;;;1.20;;
19671;SDS011;9983;51.114;13.788;2022-09-28T02:09:46;1.02;;;0.90;;
19671;SDS011;9983;51.114;13.788;2022-09-28T02:14:51;2.17;;;0.98;;
19671;SDS011;9983;51.114;13.788;2022-09-28T02:19:58;1.67;;;1.10;;
19671;SDS011;9983;51.114;13.788;2022-09-28T02:25:09;10.88;;;1.30;;
19671;SDS011;9983;51.114;13.788;2022-09-28T02:30:12;1.58;;;1.15;;
19671;SDS011;9983;51.114;13.788;2022-09-28T02:35:14;0.88;;;0.75;;
19671;SDS011;9983;51.114;13.788;2022-09-28T02:40:18;1.35;;;1.00;;
19671;SDS011;9983;51.114;13.788;2022-09-28T02:50:59;2.65;;;1.10;;
19671;SDS011;9983;51.114;13.788;2022-09-28T02:56:21;1.30;;;1.20;;
19671;SDS011;9983;51.114;13.788;2022-09-28T03:01:26;3.65;;;1.20;;
19671;SDS011;9983;51.114;13.788;2022-09-28T03:06:45;5.85;;;1.30;;
19671;SDS011;9983;51.114;13.788;2022-09-28T03:11:52;1.55;;;1.23;;
19671;SDS011;9983;51.114;13.788;2022-09-28T03:16:57;2.28;;;1.15;;
19671;SDS011;9983;51.114;13.788;2022-09-28T03:21:58;1.70;;;1.30;;
19671;SDS011;9983;51.114;13.788;2022-09-28T03:26:58;4.00;;;1.20;;
19671;SDS011;9983;51.114;13.788;2022-09-28T03:31:58;2.60;;;1.30;;
19671;SDS011;9983;51.114;13.788;2022-09-28T03:36:59;4.18;;;1.55;;
19671;SDS011;9983;51.114;13.788;2022-09-28T03:41:59;2.63;;;1.40;;
19671;SDS011;9983;51.114;13.788;2022-09-28T03:46:59;2.17;;;1.08;;
19671;SDS011;9983;51.114;13.788;2022-09-28T03:52:00;4.75;;;1.38;;
19671;SDS011;9983;51.114;13.788;2022-09-28T03:57:01;3.35;;;1.45;;
19671;SDS011;9983;51.114;13.788;2022-09-28T04:02:01;4.28;;;1.40;;
19671;SDS011;9983;51.114;13.788;2022-09-28T04:07:02;2.22;;;1.10;;
19671;SDS011;9983;51.114;13.788;2022-09-28T04:12:03;3.13;;;1.42;;
19671;SDS011;9983;51.114;13.788;2022-09-28T04:17:03;3.15;;;1.40;;
19671;SDS011;9983;51.114;13.788;2022-09-28T04:22:06;4.47;;;1.20;;
19671;SDS011;9983;51.114;13.788;2022-09-28T04:27:06;5.35;;;1.27;;
19671;SDS011;9983;51.114;13.788;2022-09-28T04:32:25;0.90;;;0.90;;
19671;SDS011;9983;51.114;13.788;2022-09-28T04:37:25;5.30;;;1.75;;
19671;SDS011;9983;51.114;13.788;2022-09-28T04:42:26;5.78;;;1.42;;
19671;SDS011;9983;51.114;13.788;2022-09-28T04:47:27;2.08;;;1.40;;
19671;SDS011;9983;51.114;13.788;2022-09-28T04:52:28;2.83;;;1.38;;
19671;SDS011;9983;51.114;13.788;2022-09-28T04:57:28;3.92;;;1.30;;
19671;SDS011;9983;51.114;13.788;2022-09-28T05:02:28;3.65;;;1.75;;
19671;SDS011;9983;51.114;13.788;2022-09-28T05:07:29;3.80;;;1.10;;
19671;SDS011;9983;51.114;13.788;2022-09-28T05:12:30;1.85;;;1.42;;
19671;SDS011;9983;51.114;13.788;2022-09-28T05:17:30;2.75;;;1.67;;
19671;SDS011;9983;51.114;13.788;2022-09-28T05:22:31;2.45;;;1.98;;
19671;SDS011;9983;51.114;13.788;2022-09-28T05:27:31;3.45;;;1.63;;
19671;SDS011;9983;51.114;13.788;2022-09-28T05:32:32;4.07;;;2.05;;
19671;SDS011;9983;51.114;13.788;2022-09-28T05:37:32;4.85;;;2.15;;
19671;SDS011;9983;51.114;13.788;2022-09-28T05:42:33;3.15;;;1.67;;
19671;SDS011;9983;51.114;13.788;2022-09-28T05:47:37;3.15;;;1.70;;
19671;SDS011;9983;51.114;13.788;2022-09-28T05:52:41;4.18;;;2.92;;
19671;SDS011;9983;51.114;13.788;2022-09-28T05:57:42;4.18;;;2.00;;
19671;SDS011;9983;51.114;13.788;2022-09-28T06:02:42;5.18;;;3.20;;
19671;SDS011;9983;51.114;13.788;2022-09-28T06:07:42;5.18;;;2.30;;
19671;SDS011;9983;51.114;13.788;2022-09-28T06:12:43;6.53;;;4.50;;
19671;SDS011;9983;51.114;13.788;2022-09-28T06:17:44;6.95;;;5.55;;
19671;SDS011;9983;51.114;13.788;2022-09-28T06:22:44;6.78;;;6.00;;
19671;SDS011;9983;51.114;13.788;2022-09-28T06:27:57;9.00;;;6.43;;
19671;SDS011;9983;51.114;13.788;2022-09-28T06:33:02;7.47;;;6.68;;
19671;SDS011;9983;51.114;13.788;2022-09-28T06:38:04;7.22;;;6.53;;
19671;SDS011;9983;51.114;13.788;2022-09-28T06:43:05;10.65;;;7.20;;
19671;SDS011;9983;51.114;13.788;2022-09-28T06:48:13;7.88;;;7.07;;
19671;SDS011;9983;51.114;13.788;2022-09-28T06:53:14;6.97;;;6.30;;
19671;SDS011;9983;51.114;13.788;2022-09-28T06:58:15;7.00;;;6.30;;
19671;SDS011;9983;51.114;13.788;2022-09-28T07:03:19;7.18;;;6.47;;
19671;SDS011;9983;51.114;13.788;2022-09-28T07:08:21;7.78;;;6.20;;
19671;SDS011;9983;51.114;13.788;2022-09-28T07:13:24;7.13;;;5.72;;
19671;SDS011;9983;51.114;13.788;2022-09-28T07:18:27;6.28;;;5.22;;
19671;SDS011;9983;51.114;13.788;2022-09-28T07:23:28;6.13;;;5.55;;
19671;SDS011;9983;51.114;13.788;2022-09-28T07:28:29;5.45;;;4.95;;
19671;SDS011;9983;51.114;13.788;2022-09-28T07:33:30;6.20;;;5.43;;
19671;SDS011;9983;51.114;13.788;2022-09-28T07:38:31;6.57;;;5.00;;
19671;SDS011;9983;51.114;13.788;2022-09-28T07:43:32;5.50;;;5.10;;
19671;SDS011;9983;51.114;13.788;2022-09-28T07:48:32;5.43;;;5.03;;
19671;SDS011;9983;51.114;13.788;2022-09-28T07:53:35;5.25;;;4.72;;
19671;SDS011;9983;51.114;13.788;2022-09-28T07:58:37;6.07;;;5.38;;
19671;SDS011;9983;51.114;13.788;2022-09-28T08:03:38;6.32;;;5.80;;
19671;SDS011;9983;51.114;13.788;2022-09-28T08:08:39;6.70;;;6.03;;
19671;SDS011;9983;51.114;13.788;2022-09-28T08:13:43;6.82;;;6.03;;
19671;SDS011;9983;51.114;13.788;2022-09-28T08:18:47;9.07;;;6.10;;
19671;SDS011;9983;51.114;13.788;2022-09-28T08:23:47;6.57;;;5.97;;
19671;SDS011;9983;51.114;13.788;2022-09-28T08:28:48;9.60;;;6.25;;
19671;SDS011;9983;51.114;13.788;2022-09-28T08:33:49;7.10;;;6.40;;
19671;SDS011;9983;51.114;13.788;2022-09-28T08:38:52;6.85;;;6.13;;
19671;SDS011;9983;51.114;13.788;2022-09-28T08:43:56;6.85;;;5.57;;
19671;SDS011;9983;51.114;13.788;2022-09-28T08:49:08;6.75;;;6.15;;
19671;SDS011;9983;51.114;13.788;2022-09-28T08:59:48;7.22;;;5.28;;
19671;SDS011;9983;51.114;13.788;2022-09-28T09:04:51;5.10;;;4.10;;
19671;SDS011;9983;51.114;13.788;2022-09-28T09:10:12;6.65;;;3.72;;
19671;SDS011;9983;51.114;13.788;2022-09-28T09:15:31;1.85;;;1.75;;
19671;SDS011;9983;51.114;13.788;2022-09-28T09:20:49;1.73;;;1.63;;
19671;SDS011;9983;51.114;13.788;2022-09-28T09:25:55;1.75;;;1.65;;
19671;SDS011;9983;51.114;13.788;2022-09-28T09:31:13;1.58;;;1.45;;
19671;SDS011;9983;51.114;13.788;2022-09-28T09:41:52;2.00;;;1.70;;
19671;SDS011;9983;51.114;13.788;2022-09-28T09:47:03;2.38;;;1.55;;
19671;SDS011;9983;51.114;13.788;2022-09-28T09:57:33;1.70;;;1.45;;
19671;SDS011;9983;51.114;13.788;2022-09-28T10:02:41;1.27;;;1.00;;
19671;SDS011;9983;51.114;13.788;2022-09-28T10:07:45;1.45;;;1.13;;
19671;SDS011;9983;51.114;13.788;2022-09-28T10:12:50;1.60;;;1.20;;
19671;SDS011;9983;51.114;13.788;2022-09-28T10:17:51;1.52;;;1.05;;
19671;SDS011;9983;51.114;13.788;2022-09-28T10:22:55;2.00;;;1.25;;
19671;SDS011;9983;51.114;13.788;2022-09-28T10:27:56;3.67;;;1.27;;
19671;SDS011;9983;51.114;13.788;2022-09-28T10:32:59;3.35;;;1.50;;
19671;SDS011;9983;51.114;13.788;2022-09-28T10:43:07;3.03;;;1.60;;
19671;SDS011;9983;51.114;13.788;2022-09-28T10:48:18;1.70;;;1.60;;
19671;SDS011;9983;51.114;13.788;2022-09-28T10:53:20;2.42;;;1.85;;
19671;SDS011;9983;51.114;13.788;2022-09-28T10:58:28;2.33;;;2.13;;
19671;SDS011;9983;51.114;13.788;2022-09-28T11:03:30;2.53;;;2.17;;
19671;SDS011;9983;51.114;13.788;2022-09-28T11:08:37;3.03;;;1.90;;
19671;SDS011;9983;51.114;13.788;2022-09-28T11:13:44;2.78;;;2.10;;
19671;SDS011;9983;51.114;13.788;2022-09-28T11:18:52;2.30;;;2.00;;
19671;SDS011;9983;51.114;13.788;2022-09-28T11:23:54;2.92;;;2.38;;
19671;SDS011;9983;51.114;13.788;2022-09-28T11:29:00;3.60;;;2.30;;
19671;SDS011;9983;51.114;13.788;2022-09-28T11:34:14;4.95;;;2.55;;
19671;SDS011;9983;51.114;13.788;2022-09-28T11:39:30;3.67;;;2.70;;
19671;SDS011;9983;51.114;13.788;2022-09-28T11:49:46;1.90;;;1.80;;
19671;SDS011;9983;51.114;13.788;2022-09-28T11:54:58;1.75;;;1.65;;
19671;SDS011;9983;51.114;13.788;2022-09-28T12:00:05;1.83;;;1.60;;
19671;SDS011;9983;51.114;13.788;2022-09-28T12:05:19;1.70;;;1.60;;
19671;SDS011;9983;51.114;13.788;2022-09-28T12:10:30;1.55;;;1.45;;
19671;SDS011;9983;51.114;13.788;2022-09-28T12:15:40;2.42;;;1.30;;
19671;SDS011;9983;51.114;13.788;2022-09-28T12:20:46;1.58;;;1.30;;
19671;SDS011;9983;51.114;13.788;2022-09-28T12:25:56;1.52;;;1.30;;
19671;SDS011;9983;51.114;13.788;2022-09-28T12:31:10;2.50;;;1.20;;
19671;SDS011;9983;51.114;13.788;2022-09-28T12:47:37;1.00;;;0.98;;
19671;SDS011;9983;51.114;13.788;2022-09-28T12:57:55;1.30;;;1.20;;
19671;SDS011;9983;51.114;13.788;2022-09-28T13:19:28;1.10;;;1.00;;
19671;SDS011;9983;51.114;13.788;2022-09-28T13:24:37;1.13;;;1.05;;
19671;SDS011;9983;51.114;13.788;2022-09-28T13:29:43;1.10;;;1.10;;
19671;SDS011;9983;51.114;13.788;2022-09-28T13:34:45;0.88;;;0.88;;
19671;SDS011;9983;51.114;13.788;2022-09-28T13:50:28;2.20;;;1.17;;
19671;SDS011;9983;51.114;13.788;2022-09-28T13:55:58;1.00;;;1.00;;
19671;SDS011;9983;51.114;13.788;2022-09-28T14:01:29;1.00;;;1.00;;
19671;SDS011;9983;51.114;13.788;2022-09-28T14:06:43;1.60;;;1.10;;
19671;SDS011;9983;51.114;13.788;2022-09-28T14:11:53;0.82;;;0.82;;
19671;SDS011;9983;51.114;13.788;2022-09-28T14:22:28;1.27;;;1.20;;
19671;SDS011;9983;51.114;13.788;2022-09-28T14:33:01;1.70;;;1.30;;
19671;SDS011;9983;51.114;13.788;2022-09-28T14:38:20;1.40;;;1.30;;
19671;SDS011;9983;51.114;13.788;2022-09-28T14:53:52;1.20;;;1.17;;
19671;SDS011;9983;51.114;13.788;2022-09-28T14:58:55;1.52;;;1.40;;
19671;SDS011;9983;51.114;13.788;2022-09-28T15:03:58;1.10;;;1.10;;
19671;SDS011;9983;51.114;13.788;2022-09-28T15:09:03;1.10;;;0.88;;
19671;SDS011;9983;51.114;13.788;2022-09-28T15:14:04;0.70;;;0.70;;
19671;SDS011;9983;51.114;13.788;2022-09-28T15:29:32;1.00;;;1.00;;
19671;SDS011;9983;51.114;13.788;2022-09-28T15:34:33;1.60;;;1.10;;
19671;SDS011;9983;51.114;13.788;2022-09-28T15:39:53;1.40;;;1.30;;
19671;SDS011;9983;51.114;13.788;2022-09-28T15:45:04;1.30;;;1.20;;
19671;SDS011;9983;51.114;13.788;2022-09-28T16:00:33;1.70;;;1.60;;
19671;SDS011;9983;51.114;13.788;2022-09-28T16:10:49;1.00;;;1.00;;
19671;SDS011;9983;51.114;13.788;2022-09-28T16:15:52;2.97;;;2.78;;
19671;SDS011;9983;51.114;13.788;2022-09-28T16:20:59;2.13;;;1.98;;
19671;SDS011;9983;51.114;13.788;2022-09-28T16:26:55;2.05;;;1.83;;
19671;SDS011;9983;51.114;13.788;2022-09-28T16:31:54;1.95;;;1.80;;
19671;SDS011;9983;51.114;13.788;2022-09-28T16:36:54;1.48;;;1.38;;
19671;SDS011;9983;51.114;13.788;2022-09-28T16:41:54;1.63;;;1.35;;
19671;SDS011;9983;51.114;13.788;2022-09-28T16:47:01;2.85;;;2.55;;
19671;SDS011;9983;51.114;13.788;2022-09-28T16:52:02;2.35;;;1.40;;
19671;SDS011;9983;51.114;13.788;2022-09-28T16:57:02;2.35;;;1.60;;
19671;SDS011;9983;51.114;13.788;2022-09-28T17:02:17;2.85;;;1.70;;
19671;SDS011;9983;51.114;13.788;2022-09-28T17:07:19;1.80;;;1.70;;
19671;SDS011;9983;51.114;13.788;2022-09-28T17:12:20;5.33;;;1.87;;
19671;SDS011;9983;51.114;13.788;2022-09-28T17:17:23;1.77;;;1.67;;
19671;SDS011;9983;51.114;13.788;2022-09-28T17:22:28;2.40;;;2.20;;
19671;SDS011;9983;51.114;13.788;2022-09-28T17:27:28;1.73;;;1.63;;
19671;SDS011;9983;51.114;13.788;2022-09-28T17:32:31;1.83;;;1.73;;
19671;SDS011;9983;51.114;13.788;2022-09-28T17:37:34;3.08;;;1.92;;
19671;SDS011;9983;51.114;13.788;2022-09-28T17:42:35;2.13;;;1.95;;
19671;SDS011;9983;51.114;13.788;2022-09-28T17:47:35;2.92;;;1.75;;
19671;SDS011;9983;51.114;13.788;2022-09-28T17:52:35;1.95;;;1.85;;
19671;SDS011;9983;51.114;13.788;2022-09-28T17:57:35;2.75;;;1.80;;
19671;SDS011;9983;51.114;13.788;2022-09-28T18:02:36;2.47;;;1.92;;
19671;SDS011;9983;51.114;13.788;2022-09-28T18:07:37;2.78;;;2.30;;
19671;SDS011;9983;51.114;13.788;2022-09-28T18:12:37;2.30;;;2.10;;
19671;SDS011;9983;51.114;13.788;2022-09-28T18:17:38;2.33;;;2.00;;
19671;SDS011;9983;51.114;13.788;2022-09-28T18:22:38;2.25;;;2.00;;
19671;SDS011;9983;51.114;13.788;2022-09-28T18:27:39;3.67;;;2.10;;
19671;SDS011;9983;51.114;13.788;2022-09-28T18:32:39;2.03;;;1.90;;
19671;SDS011;9983;51.114;13.788;2022-09-28T18:37:39;2.35;;;2.00;;
19671;SDS011;9983;51.114;13.788;2022-09-28T18:42:40;2.15;;;1.95;;
19671;SDS011;9983;51.114;13.788;2022-09-28T18:47:41;3.80;;;2.20;;
19671;SDS011;9983;51.114;13.788;2022-09-28T18:52:42;3.35;;;2.00;;
19671;SDS011;9983;51.114;13.788;2022-09-28T18:57:44;2.25;;;1.90;;
19671;SDS011;9983;51.114;13.788;2022-09-28T19:02:45;4.63;;;1.80;;
19671;SDS011;9983;51.114;13.788;2022-09-28T19:07:45;1.95;;;1.75;;
19671;SDS011;9983;51.114;13.788;2022-09-28T19:12:46;2.22;;;2.03;;
19671;SDS011;9983;51.114;13.788;2022-09-28T19:17:47;2.38;;;2.00;;
19671;SDS011;9983;51.114;13.788;2022-09-28T19:22:48;1.85;;;1.75;;
19671;SDS011;9983;51.114;13.788;2022-09-28T19:27:49;3.45;;;2.05;;
19671;SDS011;9983;51.114;13.788;2022-09-28T19:32:49;2.20;;;2.00;;
19671;SDS011;9983;51.114;13.788;2022-09-28T19:37:50;3.10;;;1.70;;
19671;SDS011;9983;51.114;13.788;2022-09-28T19:42:50;3.55;;;2.00;;
19671;SDS011;9983;51.114;13.788;2022-09-28T19:47:50;7.40;;;2.15;;
19671;SDS011;9983;51.114;13.788;2022-09-28T19:52:51;7.32;;;2.45;;
19671;SDS011;9983;51.114;13.788;2022-09-28T19:57:52;5.22;;;2.03;;
19671;SDS011;9983;51.114;13.788;2022-09-28T20:02:52;2.88;;;1.75;;
19671;SDS011;9983;51.114;13.788;2022-09-28T20:07:53;4.47;;;1.80;;
19671;SDS011;9983;51.114;13.788;2022-09-28T20:12:53;5.07;;;1.70;;
19671;SDS011;9983;51.114;13.788;2022-09-28T20:17:53;3.80;;;1.88;;
19671;SDS011;9983;51.114;13.788;2022-09-28T20:22:55;3.38;;;1.77;;
19671;SDS011;9983;51.114;13.788;2022-09-28T20:27:55;1.97;;;1.87;;
19671;SDS011;9983;51.114;13.788;2022-09-28T20:32:56;2.28;;;1.77;;
19671;SDS011;9983;51.114;13.788;2022-09-28T20:37:56;9.65;;;2.25;;
19671;SDS011;9983;51.114;13.788;2022-09-28T20:42:58;27.10;;;2.83;;
19671;SDS011;9983;51.114;13.788;2022-09-28T20:47:59;7.97;;;1.98;;
19671;SDS011;9983;51.114;13.788;2022-09-28T20:53:03;2.03;;;1.90;;
19671;SDS011;9983;51.114;13.788;2022-09-28T20:58:03;2.85;;;1.70;;
19671;SDS011;9983;51.114;13.788;2022-09-28T21:03:04;2.20;;;2.00;;
19671;SDS011;9983;51.114;13.788;2022-09-28T21:08:04;1.77;;;1.45;;
19671;SDS011;9983;51.114;13.788;2022-09-28T21:13:04;4.47;;;2.20;;
19671;SDS011;9983;51.114;13.788;2022-09-28T21:18:04;4.93;;;2.20;;
19671;SDS011;9983;51.114;13.788;2022-09-28T21:23:05;4.72;;;2.40;;
19671;SDS011;9983;51.114;13.788;2022-09-28T21:28:05;3.08;;;2.33;;
19671;SDS011;9983;51.114;13.788;2022-09-28T21:33:06;9.07;;;2.50;;
19671;SDS011;9983;51.114;13.788;2022-09-28T21:38:07;4.70;;;2.60;;
19671;SDS011;9983;51.114;13.788;2022-09-28T21:43:07;2.40;;;2.20;;
19671;SDS011;9983;51.114;13.788;2022-09-28T21:48:07;2.45;;;2.20;;
19671;SDS011;9983;51.114;13.788;2022-09-28T21:53:08;4.50;;;2.00;;
19671;SDS011;9983;51.114;13.788;2022-09-28T21:58:08;3.20;;;2.25;;
19671;SDS011;9983;51.114;13.788;2022-09-28T22:03:08;4.57;;;2.80;;
19671;SDS011;9983;51.114;13.788;2022-09-28T22:08:09;4.53;;;2.65;;
19671;SDS011;9983;51.114;13.788;2022-09-28T22:13:09;2.57;;;2.37;;
19671;SDS011;9983;51.114;13.788;2022-09-28T22:18:09;3.33;;;2.45;;
19671;SDS011;9983;51.114;13.788;2022-09-28T22:23:09;6.50;;;3.13;;
19671;SDS011;9983;51.114;13.788;2022-09-28T22:28:10;3.33;;;2.53;;
19671;SDS011;9983;51.114;13.788;2022-09-28T22:33:10;5.43;;;2.88;;
19671;SDS011;9983;51.114;13.788;2022-09-28T22:38:10;5.82;;;3.00;;
19671;SDS011;9983;51.114;13.788;2022-09-28T22:43:12;3.10;;;2.80;;
19671;SDS011;9983;51.114;13.788;2022-09-28T22:48:12;4.70;;;2.97;;
19671;SDS011;9983;51.114;13.788;2022-09-28T22:53:12;4.55;;;2.97;;
19671;SDS011;9983;51.114;13.788;2022-09-28T22:58:14;2.80;;;2.55;;
19671;SDS011;9983;51.114;13.788;2022-09-28T23:03:14;3.17;;;2.67;;
19671;SDS011;9983;51.114;13.788;2022-09-28T23:08:14;5.10;;;3.08;;
19671;SDS011;9983;51.114;13.788;2022-09-28T23:13:15;5.60;;;3.38;;
19671;SDS011;9983;51.114;13.788;2022-09-28T23:18:15;4.20;;;3.10;;
19671;SDS011;9983;51.114;13.788;2022-09-28T23:23:15;7.28;;;3.25;;
19671;SDS011;9983;51.114;13.788;2022-09-28T23:28:16;3.17;;;2.72;;
19671;SDS011;9983;51.114;13.788;2022-09-28T23:33:17;5.78;;;2.97;;
19671;SDS011;9983;51.114;13.788;2022-09-28T23:38:19;6.13;;;2.83;;
19671;SDS011;9983;51.114;13.788;2022-09-28T23:43:19;4.72;;;2.72;;
19671;SDS011;9983;51.114;13.788;2022-09-28T23:48:19;3.45;;;2.75;;
19671;SDS011;9983;51.114;13.788;2022-09-28T23:53:20;2.63;;;2.35;;
19671;SDS011;9983;51.114;13.788;2022-09-28T23:58:20;3.70;;;2.65;;
